Wetterdaten: Woche 06.04.15 - 12.04.15 (KW15)
Datum Zeit Temp. A. Feuchte A. Luftdruck Regen Wind Richtung Sonnenschein ET UV Solar Taupunkt Windchill Windben Empfang
06.04.2015 00:00 0,8 C 79 % 1023,3 hPa 0,0 l/m 0,0 km/h (0 Bft) N 0,00 h 0,000 mm 0,0 UV-I 0 W/m -2,4 C 0,8 C 0,0 km/h (0 Bft) 0,00 %
06.04.2015 01:00 0,7 C 79 % 1023,2 hPa 0,0 l/m 0,0 km/h (0 Bft) N 0,00 h 0,000 mm 0,0 UV-I 0 W/m -2,5 C 0,7 C 0,0 km/h (0 Bft) 0,00 %
06.04.2015 02:00 0,5 C 79 % 1022,9 hPa 0,0 l/m 0,3 km/h (0 Bft) SW 0,00 h 0,000 mm 0,0 UV-I 0 W/m -2,7 C 0,5 C 1,0 km/h (0 Bft) 0,00 %
06.04.2015 03:00 0,7 C 79 % 1022,9 hPa 0,0 l/m 0,0 km/h (0 Bft) N 0,00 h 0,000 mm 0,0 UV-I 0 W/m -2,5 C 0,7 C 0,0 km/h (0 Bft) 0,00 %
06.04.2015 04:00 0,6 C 78 % 1022,6 hPa 0,0 l/m 0,0 km/h (0 Bft) N 0,00 h 0,000 mm 0,0 UV-I 0 W/m -2,8 C 0,6 C 0,0 km/h (0 Bft) 0,00 %
06.04.2015 05:00 0,5 C 78 % 1022,6 hPa 0,0 l/m 0,2 km/h (0 Bft) N 0,00 h 0,000 mm 0,0 UV-I 0 W/m -2,9 C 0,5 C 1,0 km/h (0 Bft) 0,00 %
06.04.2015 06:00 0,6 C 77 % 1022,9 hPa 0,0 l/m 0,8 km/h (0 Bft) W-SW 0,00 h 0,000 mm 0,0 UV-I 0 W/m -3,1 C 0,6 C 2,0 km/h (1 Bft) 0,00 %
06.04.2015 07:00 1,1 C 75 % 1023,4 hPa 0,0 l/m 0,0 km/h (0 Bft) N 0,00 h 0,000 mm 1,0 UV-I 64 W/m -2,8 C 1,1 C 0,0 km/h (0 Bft) 0,00 %
06.04.2015 08:00 2,5 C 71 % 1023,3 hPa 0,0 l/m 0,4 km/h (0 Bft) N 0,00 h 0,000 mm 1,5 UV-I 84 W/m -2,4 C 2,5 C 3,0 km/h (1 Bft) 0,00 %
06.04.2015 09:00 5,0 C 60 % 1022,8 hPa 0,0 l/m 0,9 km/h (0 Bft) SW 0,00 h 0,000 mm 2,3 UV-I 190 W/m -2,1 C 5,0 C 2,0 km/h (1 Bft) 0,00 %
06.04.2015 10:00 6,5 C 52 % 1022,5 hPa 0,0 l/m 2,3 km/h (1 Bft) W-SW 0,50 h 0,000 mm 3,3 UV-I 339 W/m -2,8 C 6,5 C 5,9 km/h (2 Bft) 0,00 %
06.04.2015 11:00 5,4 C 50 % 1022,6 hPa 0,0 l/m 2,8 km/h (1 Bft) W-SW 0,25 h 0,000 mm 2,0 UV-I 119 W/m -4,2 C 5,4 C 5,0 km/h (1 Bft) 0,00 %
06.04.2015 12:00 5,8 C 49 % 1022,4 hPa 0,0 l/m 2,6 km/h (1 Bft) SW 0,50 h 0,000 mm 4,0 UV-I 387 W/m -4,3 C 5,1 C 4,9 km/h (1 Bft) 0,00 %
06.04.2015 13:00 1,5 C 81 % 1023,8 hPa 0,6 l/m 1,9 km/h (1 Bft) W-SW 0,00 h 0,000 mm 3,3 UV-I 154 W/m -1,4 C 1,5 C 3,0 km/h (1 Bft) 0,00 %
06.04.2015 14:00 3,6 C 78 % 1022,5 hPa 0,0 l/m 2,0 km/h (1 Bft) W-SW 0,50 h 0,000 mm 1,7 UV-I 276 W/m 0,1 C 3,6 C 4,0 km/h (1 Bft) 0,00 %
06.04.2015 15:00 4,1 C 70 % 1022,0 hPa 0,0 l/m 1,9 km/h (1 Bft) W-SW 0,00 h 0,000 mm 2,7 UV-I 288 W/m -0,8 C 4,1 C 4,0 km/h (1 Bft) 0,00 %
06.04.2015 16:00 4,0 C 67 % 1022,5 hPa 0,0 l/m 4,9 km/h (1 Bft) SW 0,00 h 0,000 mm 1,0 UV-I 90 W/m -1,7 C 3,6 C 6,9 km/h (2 Bft) 0,00 %
06.04.2015 17:00 1,8 C 75 % 1023,5 hPa 0,3 l/m 2,7 km/h (1 Bft) W-SW 0,00 h 0,000 mm 1,0 UV-I 120 W/m -2,1 C 1,8 C 5,0 km/h (1 Bft) 0,00 %
06.04.2015 18:00 3,5 C 71 % 1024,5 hPa 0,3 l/m 0,8 km/h (0 Bft) S-SW 1,00 h 0,000 mm 1,0 UV-I 263 W/m -1,2 C 3,5 C 3,0 km/h (1 Bft) 0,00 %
06.04.2015 19:00 1,9 C 72 % 1026,6 hPa 0,0 l/m 4,8 km/h (1 Bft) NO 0,25 h 0,000 mm 0,0 UV-I 7 W/m -2,6 C 0,7 C 6,9 km/h (2 Bft) 0,00 %
06.04.2015 20:00 0,5 C 80 % 1028,1 hPa 0,0 l/m 0,0 km/h (0 Bft) N 0,00 h 0,000 mm 0,0 UV-I 0 W/m -2,5 C 0,5 C 0,0 km/h (0 Bft) 0,00 %
06.04.2015 21:00 0,4 C 81 % 1029,0 hPa 0,0 l/m 0,0 km/h (0 Bft) N 0,00 h 0,000 mm 0,0 UV-I 0 W/m -2,5 C 0,4 C 0,0 km/h (0 Bft) 0,00 %
06.04.2015 22:00 0,7 C 76 % 1029,9 hPa 0,0 l/m 0,0 km/h (0 Bft) N 0,00 h 0,000 mm 0,0 UV-I 0 W/m -3,0 C 0,7 C 0,0 km/h (0 Bft) 0,00 %
06.04.2015 23:00 1,1 C 70 % 1030,6 hPa 0,0 l/m 0,0 km/h (0 Bft) N 0,00 h 0,000 mm 0,0 UV-I 0 W/m -3,8 C 1,1 C 0,0 km/h (0 Bft) 0,00 %
07.04.2015 00:00 1,1 C 67 % 1031,3 hPa 0,0 l/m 0,9 km/h (0 Bft) W 0,00 h 0,000 mm 0,0 UV-I 0 W/m -4,3 C 1,1 C 2,0 km/h (1 Bft) 0,00 %
07.04.2015 01:00 1,1 C 66 % 1031,9 hPa 0,0 l/m 0,7 km/h (0 Bft) N 0,00 h 0,000 mm 0,0 UV-I 0 W/m -4,6 C 1,1 C 3,0 km/h (1 Bft) 0,00 %
07.04.2015 02:00 0,6 C 73 % 1032,2 hPa 0,0 l/m 0,0 km/h (0 Bft) N 0,00 h 0,000 mm 0,0 UV-I 0 W/m -3,8 C 0,6 C 0,0 km/h (0 Bft) 0,00 %
07.04.2015 03:00 0,4 C 73 % 1032,8 hPa 0,0 l/m 0,0 km/h (0 Bft) N 0,00 h 0,000 mm 0,0 UV-I 0 W/m -3,9 C 0,4 C 0,0 km/h (0 Bft) 0,00 %
07.04.2015 04:00 0,1 C 73 % 1033,2 hPa 0,0 l/m 0,0 km/h (0 Bft) N 0,00 h 0,000 mm 0,0 UV-I 0 W/m -4,2 C 0,1 C 0,0 km/h (0 Bft) 0,00 %
07.04.2015 05:00 -1,0 C 74 % 1034,3 hPa 0,0 l/m 0,0 km/h (0 Bft) N 0,00 h 0,000 mm 0,0 UV-I 0 W/m -5,1 C -1,0 C 0,0 km/h (0 Bft) 0,00 %
07.04.2015 06:00 -0,8 C 74 % 1035,3 hPa 0,0 l/m 0,3 km/h (0 Bft) S-SW 0,00 h 0,000 mm 0,0 UV-I 0 W/m -4,8 C -0,8 C 1,0 km/h (0 Bft) 0,00 %
07.04.2015 07:00 0,1 C 71 % 1036,0 hPa 0,0 l/m 0,4 km/h (0 Bft) W-SW 0,00 h 0,000 mm 1,0 UV-I 46 W/m -4,4 C 0,1 C 1,0 km/h (0 Bft) 0,00 %
07.04.2015 08:00 1,8 C 64 % 1036,4 hPa 0,0 l/m 1,0 km/h (0 Bft) W-SW 0,00 h 0,000 mm 1,0 UV-I 141 W/m -4,3 C 1,8 C 3,0 km/h (1 Bft) 0,00 %
07.04.2015 09:00 2,9 C 62 % 1036,8 hPa 0,0 l/m 3,5 km/h (1 Bft) W-SW 0,00 h 0,000 mm 2,0 UV-I 166 W/m -3,6 C 2,9 C 6,9 km/h (2 Bft) 0,00 %
07.04.2015 10:00 4,6 C 55 % 1036,6 hPa 0,0 l/m 0,4 km/h (0 Bft) S-SW 0,25 h 0,000 mm 3,3 UV-I 309 W/m -3,7 C 4,6 C 1,0 km/h (0 Bft) 0,00 %
07.04.2015 11:00 6,7 C 46 % 1035,9 hPa 0,0 l/m 1,4 km/h (1 Bft) SW 0,50 h 0,000 mm 3,7 UV-I 423 W/m -4,1 C 6,7 C 4,0 km/h (1 Bft) 0,00 %
07.04.2015 12:00 6,3 C 43 % 1035,6 hPa 0,0 l/m 5,9 km/h (2 Bft) W-SW 0,25 h 0,000 mm 3,7 UV-I 271 W/m -5,4 C 4,9 C 8,9 km/h (2 Bft) 0,00 %
07.04.2015 13:00 6,7 C 42 % 1035,2 hPa 0,0 l/m 3,9 km/h (1 Bft) W-SW 0,25 h 0,000 mm 4,3 UV-I 265 W/m -5,3 C 6,3 C 6,9 km/h (2 Bft) 0,00 %
07.04.2015 14:00 7,2 C 42 % 1034,5 hPa 0,0 l/m 6,7 km/h (2 Bft) W-SW 0,75 h 0,000 mm 2,3 UV-I 522 W/m -4,8 C 6,8 C 9,9 km/h (2 Bft) 0,00 %
07.04.2015 15:00 7,8 C 43 % 1033,6 hPa 0,0 l/m 5,6 km/h (1 Bft) W-SW 0,75 h 0,000 mm 2,0 UV-I 432 W/m -4,0 C 7,1 C 6,9 km/h (2 Bft) 0,00 %
07.04.2015 16:00 8,0 C 42 % 1033,3 hPa 0,0 l/m 6,9 km/h (2 Bft) SW 0,00 h 0,000 mm 2,0 UV-I 157 W/m -4,2 C 7,1 C 9,9 km/h (2 Bft) 0,00 %
07.04.2015 17:00 8,4 C 39 % 1032,8 hPa 0,0 l/m 7,1 km/h (2 Bft) S 0,75 h 0,000 mm 1,0 UV-I 492 W/m -4,7 C 7,0 C 12,0 km/h (2 Bft) 0,00 %
07.04.2015 18:00 7,3 C 41 % 1032,5 hPa 0,0 l/m 9,0 km/h (2 Bft) W-SW 0,75 h 0,000 mm 1,0 UV-I 234 W/m -5,3 C 4,7 C 11,9 km/h (2 Bft) 0,00 %
07.04.2015 19:00 5,8 C 46 % 1032,4 hPa 0,0 l/m 6,2 km/h (2 Bft) W-SW 0,00 h 0,000 mm 0,0 UV-I 13 W/m -4,9 C 4,6 C 7,9 km/h (2 Bft) 0,00 %
07.04.2015 20:00 5,2 C 53 % 1032,7 hPa 0,0 l/m 0,4 km/h (0 Bft) W-SW 0,00 h 0,000 mm 0,0 UV-I 0 W/m -3,6 C 5,2 C 2,0 km/h (1 Bft) 0,00 %
07.04.2015 21:00 4,5 C 56 % 1032,8 hPa 0,0 l/m 0,6 km/h (0 Bft) O-SO 0,00 h 0,000 mm 0,0 UV-I 0 W/m -3,5 C 4,5 C 3,0 km/h (1 Bft) 0,00 %
07.04.2015 22:00 4,0 C 56 % 1032,4 hPa 0,0 l/m 1,4 km/h (1 Bft) S-SW 0,00 h 0,000 mm 0,0 UV-I 0 W/m -3,9 C 4,0 C 4,0 km/h (1 Bft) 0,00 %
07.04.2015 23:00 4,1 C 56 % 1032,1 hPa 0,0 l/m 2,3 km/h (1 Bft) SW 0,00 h 0,000 mm 0,0 UV-I 0 W/m -3,8 C 4,1 C 4,0 km/h (1 Bft) 0,00 %
08.04.2015 00:00 3,9 C 59 % 1032,3 hPa 0,0 l/m 0,5 km/h (0 Bft) SO 0,00 h 0,000 mm 0,0 UV-I 0 W/m -3,4 C 3,9 C 2,0 km/h (1 Bft) 0,00 %
08.04.2015 01:00 4,2 C 57 % 1031,9 hPa 0,0 l/m 4,4 km/h (1 Bft) S 0,00 h 0,000 mm 0,0 UV-I 0 W/m -3,6 C 3,3 C 7,9 km/h (2 Bft) 0,00 %
08.04.2015 02:00 4,2 C 56 % 1031,6 hPa 0,0 l/m 1,4 km/h (1 Bft) N-NW 0,00 h 0,000 mm 0,0 UV-I 0 W/m -3,8 C 4,2 C 5,0 km/h (1 Bft) 0,00 %
08.04.2015 03:00 4,0 C 56 % 1031,3 hPa 0,0 l/m 4,8 km/h (1 Bft) W-SW 0,00 h 0,000 mm 0,0 UV-I 0 W/m -4,1 C 3,1 C 8,9 km/h (2 Bft) 0,00 %
08.04.2015 04:00 3,8 C 55 % 1030,8 hPa 0,0 l/m 4,9 km/h (1 Bft) W-SW 0,00 h 0,000 mm 0,0 UV-I 0 W/m -4,4 C 3,4 C 7,9 km/h (2 Bft) 0,00 %
08.04.2015 05:00 4,3 C 52 % 1030,9 hPa 0,0 l/m 7,3 km/h (2 Bft) SW 0,00 h 0,000 mm 0,0 UV-I 0 W/m -4,6 C 3,1 C 10,9 km/h (2 Bft) 0,00 %
08.04.2015 06:00 4,0 C 53 % 1030,9 hPa 0,0 l/m 4,6 km/h (1 Bft) S-SW 0,00 h 0,000 mm 0,0 UV-I 1 W/m -4,6 C 3,7 C 7,9 km/h (2 Bft) 0,00 %
08.04.2015 07:00 4,3 C 53 % 1030,9 hPa 0,0 l/m 3,5 km/h (1 Bft) S-SW 0,00 h 0,000 mm 1,0 UV-I 51 W/m -4,5 C 4,0 C 6,9 km/h (2 Bft) 0,00 %
08.04.2015 08:00 5,4 C 50 % 1031,0 hPa 0,0 l/m 1,8 km/h (1 Bft) W-SW 0,75 h 0,000 mm 1,3 UV-I 441 W/m -4,2 C 5,3 C 4,0 km/h (1 Bft) 0,00 %
08.04.2015 09:00 7,4 C 44 % 1030,9 hPa 0,0 l/m 3,2 km/h (1 Bft) SW 1,00 h 0,000 mm 2,3 UV-I 670 W/m -3,9 C 7,4 C 5,9 km/h (2 Bft) 0,00 %
08.04.2015 10:00 8,4 C 44 % 1030,7 hPa 0,0 l/m 4,3 km/h (1 Bft) SW 1,00 h 0,000 mm 2,7 UV-I 718 W/m -3,3 C 8,1 C 7,9 km/h (2 Bft) 0,00 %
08.04.2015 11:00 9,2 C 45 % 1030,3 hPa 0,0 l/m 2,7 km/h (1 Bft) S 1,00 h 0,000 mm 3,7 UV-I 715 W/m -2,3 C 9,2 C 5,9 km/h (2 Bft) 0,00 %
08.04.2015 12:00 10,9 C 42 % 1029,8 hPa 0,0 l/m 8,8 km/h (2 Bft) SW 1,00 h 0,000 mm 5,0 UV-I 636 W/m -1,5 C 9,3 C 11,9 km/h (2 Bft) 0,00 %
08.04.2015 13:00 11,1 C 44 % 1029,6 hPa 0,0 l/m 4,2 km/h (1 Bft) SW 0,75 h 0,000 mm 3,0 UV-I 650 W/m -0,8 C 10,5 C 6,9 km/h (2 Bft) 0,00 %
08.04.2015 14:00 10,8 C 46 % 1029,9 hPa 0,0 l/m 3,8 km/h (1 Bft) SW 0,50 h 0,000 mm 3,0 UV-I 474 W/m -0,4 C 10,3 C 5,9 km/h (2 Bft) 0,00 %
08.04.2015 15:00 11,0 C 47 % 1029,8 hPa 0,0 l/m 13,8 km/h (3 Bft) W-SW 0,75 h 0,000 mm 3,0 UV-I 390 W/m 0,2 C 7,0 C 16,9 km/h (3 Bft) 0,00 %
08.04.2015 16:00 11,0 C 48 % 1029,6 hPa 0,0 l/m 5,7 km/h (1 Bft) W-SW 0,25 h 0,000 mm 1,7 UV-I 210 W/m 0,4 C 10,5 C 8,9 km/h (2 Bft) 0,00 %
08.04.2015 17:00 10,1 C 51 % 1029,8 hPa 0,0 l/m 4,0 km/h (1 Bft) W-SW 0,00 h 0,000 mm 1,0 UV-I 73 W/m 0,3 C 10,1 C 6,9 km/h (2 Bft) 0,00 %
08.04.2015 18:00 9,7 C 52 % 1029,9 hPa 0,0 l/m 1,0 km/h (0 Bft) N 0,00 h 0,000 mm 0,0 UV-I 33 W/m 0,3 C 9,7 C 2,0 km/h (1 Bft) 0,00 %
08.04.2015 19:00 9,1 C 55 % 1030,4 hPa 0,0 l/m 0,0 km/h (0 Bft) N 0,00 h 0,000 mm 0,0 UV-I 7 W/m 0,5 C 9,1 C 0,0 km/h (0 Bft) 0,00 %
08.04.2015 20:00 8,6 C 59 % 1031,1 hPa 0,0 l/m 0,0 km/h (0 Bft) N 0,00 h 0,000 mm 0,0 UV-I 0 W/m 0,9 C 8,6 C 0,0 km/h (0 Bft) 0,00 %
08.04.2015 21:00 8,0 C 63 % 1031,5 hPa 0,0 l/m 0,0 km/h (0 Bft) N 0,00 h 0,000 mm 0,0 UV-I 0 W/m 1,3 C 8,0 C 0,0 km/h (0 Bft) 0,00 %
08.04.2015 22:00 7,4 C 65 % 1031,8 hPa 0,0 l/m 0,0 km/h (0 Bft) N 0,00 h 0,000 mm 0,0 UV-I 0 W/m 1,2 C 7,4 C 0,0 km/h (0 Bft) 0,00 %
08.04.2015 23:00 7,1 C 67 % 1032,0 hPa 0,0 l/m 0,0 km/h (0 Bft) N 0,00 h 0,000 mm 0,0 UV-I 0 W/m 1,3 C 7,1 C 0,0 km/h (0 Bft) 0,00 %
09.04.2015 00:00 6,8 C 69 % 1032,0 hPa 0,0 l/m 0,0 km/h (0 Bft) N 0,00 h 0,000 mm 0,0 UV-I 0 W/m 1,4 C 6,8 C 0,0 km/h (0 Bft) 0,00 %
09.04.2015 01:00 6,4 C 70 % 1032,0 hPa 0,0 l/m 0,0 km/h (0 Bft) N 0,00 h 0,000 mm 0,0 UV-I 0 W/m 1,3 C 6,4 C 0,0 km/h (0 Bft) 0,00 %
09.04.2015 02:00 5,9 C 69 % 1031,8 hPa 0,0 l/m 0,0 km/h (0 Bft) N 0,00 h 0,000 mm 0,0 UV-I 0 W/m 0,7 C 5,9 C 0,0 km/h (0 Bft) 0,00 %
09.04.2015 03:00 5,8 C 70 % 1031,6 hPa 0,0 l/m 0,0 km/h (0 Bft) N 0,00 h 0,000 mm 0,0 UV-I 0 W/m 0,8 C 5,8 C 0,0 km/h (0 Bft) 0,00 %
09.04.2015 04:00 5,6 C 71 % 1031,9 hPa 0,0 l/m 0,0 km/h (0 Bft) N 0,00 h 0,000 mm 0,0 UV-I 0 W/m 0,8 C 5,6 C 0,0 km/h (0 Bft) 0,00 %
09.04.2015 05:00 5,7 C 72 % 1031,8 hPa 0,0 l/m 0,3 km/h (0 Bft) O-SO 0,00 h 0,000 mm 0,0 UV-I 0 W/m 1,0 C 5,7 C 1,0 km/h (0 Bft) 0,00 %
09.04.2015 06:00 5,7 C 74 % 1031,8 hPa 0,0 l/m 0,6 km/h (0 Bft) N 0,00 h 0,000 mm 0,0 UV-I 11 W/m 1,4 C 5,7 C 3,0 km/h (1 Bft) 0,00 %
09.04.2015 07:00 6,0 C 72 % 1031,7 hPa 0,0 l/m 3,1 km/h (1 Bft) O 0,75 h 0,000 mm 1,0 UV-I 101 W/m 1,4 C 5,2 C 4,0 km/h (1 Bft) 0,00 %
09.04.2015 08:00 7,8 C 65 % 1031,1 hPa 0,0 l/m 7,8 km/h (2 Bft) O 0,00 h 0,000 mm 1,3 UV-I 167 W/m 1,6 C 5,7 C 11,9 km/h (2 Bft) 0,00 %
09.04.2015 09:00 8,8 C 62 % 1030,5 hPa 0,0 l/m 12,6 km/h (3 Bft) O 0,00 h 0,000 mm 2,0 UV-I 184 W/m 1,9 C 4,9 C 16,8 km/h (3 Bft) 0,00 %
09.04.2015 10:00 9,6 C 61 % 1029,9 hPa 0,0 l/m 7,2 km/h (2 Bft) O-SO 0,25 h 0,000 mm 3,3 UV-I 326 W/m 2,4 C 8,3 C 11,9 km/h (2 Bft) 0,00 %
09.04.2015 11:00 10,6 C 58 % 1029,4 hPa 0,0 l/m 11,3 km/h (2 Bft) O 1,00 h 0,000 mm 4,0 UV-I 448 W/m 2,6 C 7,8 C 14,9 km/h (3 Bft) 0,00 %
09.04.2015 12:00 11,6 C 54 % 1028,5 hPa 0,0 l/m 8,8 km/h (2 Bft) NO 1,00 h 0,000 mm 5,0 UV-I 574 W/m 2,7 C 9,5 C 10,9 km/h (2 Bft) 0,00 %
09.04.2015 13:00 12,9 C 52 % 1027,1 hPa 0,0 l/m 13,5 km/h (3 Bft) O 1,00 h 0,000 mm 5,0 UV-I 639 W/m 3,1 C 9,2 C 16,8 km/h (3 Bft) 0,00 %
09.04.2015 14:00 14,1 C 47 % 1026,0 hPa 0,0 l/m 10,9 km/h (2 Bft) O 1,00 h 0,000 mm 3,0 UV-I 664 W/m 2,8 C 11,4 C 14,8 km/h (3 Bft) 0,00 %
09.04.2015 15:00 14,8 C 46 % 1024,9 hPa 0,0 l/m 12,3 km/h (3 Bft) O 1,00 h 0,000 mm 2,0 UV-I 651 W/m 3,2 C 12,0 C 16,8 km/h (3 Bft) 0,00 %
09.04.2015 16:00 14,9 C 47 % 1024,2 hPa 0,0 l/m 8,8 km/h (2 Bft) SO 1,00 h 0,000 mm 2,0 UV-I 612 W/m 3,7 C 13,6 C 11,9 km/h (2 Bft) 0,00 %
09.04.2015 17:00 15,0 C 46 % 1023,6 hPa 0,0 l/m 13,1 km/h (3 Bft) O 1,00 h 0,000 mm 1,3 UV-I 408 W/m 3,4 C 12,0 C 16,9 km/h (3 Bft) 0,00 %
09.04.2015 18:00 14,0 C 49 % 1023,6 hPa 0,0 l/m 10,8 km/h (2 Bft) O-SO 1,00 h 0,000 mm 1,0 UV-I 170 W/m 3,4 C 11,4 C 13,8 km/h (3 Bft) 0,00 %
09.04.2015 19:00 12,8 C 51 % 1023,7 hPa 0,0 l/m 5,2 km/h (1 Bft) S 0,75 h 0,000 mm 0,0 UV-I 42 W/m 3,0 C 12,3 C 7,9 km/h (2 Bft) 0,00 %
09.04.2015 20:00 11,1 C 53 % 1024,2 hPa 0,0 l/m 1,8 km/h (1 Bft) O-SO 0,00 h 0,000 mm 0,0 UV-I 0 W/m 1,8 C 11,1 C 5,9 km/h (2 Bft) 0,00 %
09.04.2015 21:00 10,1 C 55 % 1024,7 hPa 0,0 l/m 1,9 km/h (1 Bft) O-SO 0,00 h 0,000 mm 0,0 UV-I 0 W/m 1,5 C 10,1 C 4,0 km/h (1 Bft) 0,00 %
09.04.2015 22:00 9,1 C 59 % 1024,8 hPa 0,0 l/m 2,1 km/h (1 Bft) O-SO 0,00 h 0,000 mm 0,0 UV-I 0 W/m 1,5 C 9,1 C 3,0 km/h (1 Bft) 0,00 %
09.04.2015 23:00 8,0 C 63 % 1024,9 hPa 0,0 l/m 0,8 km/h (0 Bft) S-SO 0,00 h 0,000 mm 0,0 UV-I 0 W/m 1,3 C 8,0 C 1,0 km/h (0 Bft) 0,00 %
10.04.2015 00:00 5,9 C 72 % 1025,3 hPa 0,0 l/m 0,0 km/h (0 Bft) N 0,00 h 0,000 mm 0,0 UV-I 0 W/m 1,1 C 5,9 C 0,0 km/h (0 Bft) 0,00 %
10.04.2015 01:00 4,7 C 78 % 1025,8 hPa 0,0 l/m 0,0 km/h (0 Bft) N 0,00 h 0,000 mm 0,0 UV-I 0 W/m 1,1 C 4,7 C 0,0 km/h (0 Bft) 0,00 %
10.04.2015 02:00 4,2 C 83 % 1025,7 hPa 0,0 l/m 0,0 km/h (0 Bft) N 0,00 h 0,000 mm 0,0 UV-I 0 W/m 1,5 C 4,2 C 0,0 km/h (0 Bft) 0,00 %
10.04.2015 03:00 4,0 C 86 % 1025,8 hPa 0,0 l/m 0,0 km/h (0 Bft) N 0,00 h 0,000 mm 0,0 UV-I 0 W/m 1,9 C 4,0 C 0,0 km/h (0 Bft) 0,00 %
10.04.2015 04:00 3,9 C 88 % 1025,5 hPa 0,0 l/m 0,0 km/h (0 Bft) N 0,00 h 0,000 mm 0,0 UV-I 0 W/m 2,1 C 3,9 C 0,0 km/h (0 Bft) 0,00 %
10.04.2015 05:00 3,6 C 89 % 1025,5 hPa 0,0 l/m 0,0 km/h (0 Bft) N 0,00 h 0,000 mm 0,0 UV-I 0 W/m 1,9 C 3,6 C 0,0 km/h (0 Bft) 0,00 %
10.04.2015 06:00 3,0 C 90 % 1025,6 hPa 0,0 l/m 0,0 km/h (0 Bft) N 0,00 h 0,000 mm 0,0 UV-I 10 W/m 1,4 C 3,0 C 0,0 km/h (0 Bft) 0,00 %
10.04.2015 07:00 4,4 C 89 % 1025,7 hPa 0,0 l/m 0,0 km/h (0 Bft) N 0,25 h 0,000 mm 1,0 UV-I 85 W/m 2,7 C 4,4 C 0,0 km/h (0 Bft) 0,00 %
10.04.2015 08:00 7,6 C 75 % 1025,2 hPa 0,0 l/m 0,0 km/h (0 Bft) N 0,00 h 0,000 mm 1,3 UV-I 156 W/m 3,4 C 7,6 C 0,0 km/h (0 Bft) 0,00 %
10.04.2015 09:00 9,6 C 63 % 1024,5 hPa 0,0 l/m 0,0 km/h (0 Bft) N 0,00 h 0,000 mm 2,0 UV-I 187 W/m 2,9 C 9,6 C 0,0 km/h (0 Bft) 0,00 %
10.04.2015 10:00 11,5 C 59 % 1024,0 hPa 0,0 l/m 1,2 km/h (1 Bft) O-SO 0,50 h 0,000 mm 3,3 UV-I 349 W/m 3,7 C 11,5 C 2,0 km/h (1 Bft) 0,00 %
10.04.2015 11:00 13,6 C 53 % 1023,3 hPa 0,0 l/m 2,6 km/h (1 Bft) SO 1,00 h 0,000 mm 4,0 UV-I 483 W/m 4,3 C 13,6 C 4,9 km/h (1 Bft) 0,00 %
10.04.2015 12:00 15,6 C 48 % 1022,4 hPa 0,0 l/m 0,0 km/h (0 Bft) N 1,00 h 0,000 mm 5,0 UV-I 613 W/m 4,5 C 15,6 C 0,0 km/h (0 Bft) 0,00 %
10.04.2015 13:00 17,0 C 43 % 1021,7 hPa 0,0 l/m 4,3 km/h (1 Bft) O 1,00 h 0,000 mm 5,0 UV-I 670 W/m 4,4 C 16,9 C 6,9 km/h (2 Bft) 0,00 %
10.04.2015 14:00 18,6 C 37 % 1020,7 hPa 0,0 l/m 1,7 km/h (1 Bft) O-SO 1,00 h 0,000 mm 3,0 UV-I 704 W/m 3,7 C 18,6 C 4,0 km/h (1 Bft) 0,00 %
10.04.2015 15:00 19,6 C 33 % 1019,8 hPa 0,0 l/m 1,4 km/h (1 Bft) O 1,00 h 0,000 mm 2,0 UV-I 706 W/m 2,7 C 19,6 C 2,0 km/h (1 Bft) 0,00 %
10.04.2015 16:00 19,6 C 32 % 1019,1 hPa 0,0 l/m 1,1 km/h (0 Bft) N 1,00 h 0,000 mm 2,0 UV-I 690 W/m 2,4 C 19,6 C 3,0 km/h (1 Bft) 0,00 %
10.04.2015 17:00 19,9 C 32 % 1018,4 hPa 0,0 l/m 1,0 km/h (0 Bft) O-SO 1,00 h 0,000 mm 1,0 UV-I 488 W/m 2,8 C 19,9 C 2,0 km/h (1 Bft) 0,00 %
10.04.2015 18:00 19,2 C 34 % 1018,1 hPa 0,0 l/m 1,2 km/h (1 Bft) O 1,00 h 0,000 mm 1,0 UV-I 277 W/m 3,0 C 19,2 C 2,0 km/h (1 Bft) 0,00 %
10.04.2015 19:00 16,9 C 40 % 1018,2 hPa 0,0 l/m 0,0 km/h (0 Bft) N 0,50 h 0,000 mm 0,0 UV-I 30 W/m 3,1 C 16,9 C 0,0 km/h (0 Bft) 0,00 %
10.04.2015 20:00 13,6 C 50 % 1018,8 hPa 0,0 l/m 0,0 km/h (0 Bft) N 0,00 h 0,000 mm 0,0 UV-I 0 W/m 3,2 C 13,6 C 0,0 km/h (0 Bft) 0,00 %
10.04.2015 21:00 12,0 C 56 % 1019,0 hPa 0,0 l/m 0,0 km/h (0 Bft) N 0,00 h 0,000 mm 0,0 UV-I 0 W/m 3,4 C 12,0 C 0,0 km/h (0 Bft) 0,00 %
10.04.2015 22:00 10,4 C 62 % 1019,1 hPa 0,0 l/m 0,0 km/h (0 Bft) N 0,00 h 0,000 mm 0,0 UV-I 0 W/m 3,5 C 10,4 C 0,0 km/h (0 Bft) 0,00 %
10.04.2015 23:00 9,2 C 72 % 1019,4 hPa 0,0 l/m 0,0 km/h (0 Bft) N 0,00 h 0,000 mm 0,0 UV-I 0 W/m 4,3 C 9,2 C 0,0 km/h (0 Bft) 0,00 %
11.04.2015 00:00 8,5 C 75 % 1019,5 hPa 0,0 l/m 0,0 km/h (0 Bft) N 0,00 h 0,000 mm 0,0 UV-I 0 W/m 4,2 C 8,5 C 0,0 km/h (0 Bft) 0,00 %
11.04.2015 01:00 7,2 C 80 % 1019,6 hPa 0,0 l/m 0,0 km/h (0 Bft) N 0,00 h 0,000 mm 0,0 UV-I 0 W/m 3,9 C 7,2 C 0,0 km/h (0 Bft) 0,00 %
11.04.2015 02:00 6,9 C 80 % 1019,4 hPa 0,0 l/m 0,0 km/h (0 Bft) N 0,00 h 0,000 mm 0,0 UV-I 0 W/m 3,6 C 6,9 C 0,0 km/h (0 Bft) 0,00 %
11.04.2015 03:00 5,8 C 83 % 1019,6 hPa 0,0 l/m 0,0 km/h (0 Bft) N 0,00 h 0,000 mm 0,0 UV-I 0 W/m 3,2 C 5,8 C 0,0 km/h (0 Bft) 0,00 %
11.04.2015 04:00 5,2 C 86 % 1019,6 hPa 0,0 l/m 0,0 km/h (0 Bft) N 0,00 h 0,000 mm 0,0 UV-I 0 W/m 3,0 C 5,2 C 0,0 km/h (0 Bft) 0,00 %
11.04.2015 05:00 4,8 C 87 % 1019,9 hPa 0,0 l/m 0,0 km/h (0 Bft) N 0,00 h 0,000 mm 0,0 UV-I 0 W/m 2,8 C 4,8 C 0,0 km/h (0 Bft) 0,00 %
11.04.2015 06:00 4,6 C 85 % 1020,3 hPa 0,0 l/m 0,0 km/h (0 Bft) N 0,25 h 0,000 mm 0,0 UV-I 15 W/m 2,3 C 4,6 C 0,0 km/h (0 Bft) 0,00 %
11.04.2015 07:00 7,4 C 76 % 1020,9 hPa 0,0 l/m 0,0 km/h (0 Bft) N 1,00 h 0,000 mm 1,0 UV-I 132 W/m 3,4 C 7,4 C 0,0 km/h (0 Bft) 0,00 %
11.04.2015 08:00 9,2 C 70 % 1021,3 hPa 0,0 l/m 0,0 km/h (0 Bft) N 0,00 h 0,000 mm 1,3 UV-I 128 W/m 3,9 C 9,2 C 0,0 km/h (0 Bft) 0,00 %
11.04.2015 09:00 12,8 C 58 % 1020,8 hPa 0,0 l/m 1,6 km/h (1 Bft) W-SW 0,25 h 0,000 mm 2,0 UV-I 237 W/m 4,6 C 12,8 C 3,0 km/h (1 Bft) 0,00 %
11.04.2015 10:00 16,4 C 44 % 1019,4 hPa 0,0 l/m 4,2 km/h (1 Bft) S-SW 0,75 h 0,000 mm 3,3 UV-I 402 W/m 3,9 C 16,2 C 4,9 km/h (1 Bft) 0,00 %
11.04.2015 11:00 17,9 C 37 % 1019,2 hPa 0,0 l/m 3,5 km/h (1 Bft) S-SW 1,00 h 0,000 mm 4,3 UV-I 520 W/m 3,1 C 17,6 C 6,0 km/h (2 Bft) 0,00 %
11.04.2015 12:00 18,6 C 36 % 1018,9 hPa 0,0 l/m 4,5 km/h (1 Bft) S 1,00 h 0,000 mm 5,0 UV-I 631 W/m 3,2 C 18,3 C 6,9 km/h (2 Bft) 0,00 %
11.04.2015 13:00 18,7 C 37 % 1018,7 hPa 0,0 l/m 10,4 km/h (2 Bft) W-SW 0,75 h 0,000 mm 4,3 UV-I 513 W/m 3,7 C 17,2 C 14,9 km/h (3 Bft) 0,00 %
11.04.2015 14:00 19,4 C 33 % 1018,5 hPa 0,0 l/m 6,7 km/h (2 Bft) S-SW 1,00 h 0,000 mm 3,7 UV-I 706 W/m 2,4 C 18,7 C 9,9 km/h (2 Bft) 0,00 %
11.04.2015 15:00 19,5 C 34 % 1018,6 hPa 0,0 l/m 5,8 km/h (2 Bft) SW 0,75 h 0,000 mm 2,3 UV-I 575 W/m 3,1 C 19,3 C 9,9 km/h (2 Bft) 0,00 %
11.04.2015 16:00 18,9 C 36 % 1018,8 hPa 0,0 l/m 10,9 km/h (2 Bft) SW 0,25 h 0,000 mm 2,0 UV-I 272 W/m 3,6 C 17,3 C 14,8 km/h (3 Bft) 0,00 %
11.04.2015 17:00 18,3 C 37 % 1019,4 hPa 0,0 l/m 3,6 km/h (1 Bft) W-SW 0,75 h 0,000 mm 1,0 UV-I 207 W/m 3,2 C 18,3 C 6,9 km/h (2 Bft) 0,00 %
11.04.2015 18:00 16,5 C 43 % 1020,6 hPa 0,0 l/m 1,7 km/h (1 Bft) W-SW 0,00 h 0,000 mm 1,0 UV-I 75 W/m 3,7 C 16,4 C 3,0 km/h (1 Bft) 0,00 %
11.04.2015 19:00 15,3 C 49 % 1021,2 hPa 0,0 l/m 2,1 km/h (1 Bft) W-SW 0,75 h 0,000 mm 0,0 UV-I 45 W/m 4,7 C 15,3 C 4,0 km/h (1 Bft) 0,00 %
11.04.2015 20:00 13,3 C 57 % 1022,9 hPa 0,0 l/m 0,9 km/h (0 Bft) O-SO 0,00 h 0,000 mm 0,0 UV-I 0 W/m 4,9 C 13,3 C 2,0 km/h (1 Bft) 0,00 %
11.04.2015 21:00 13,4 C 56 % 1023,9 hPa 0,0 l/m 4,2 km/h (1 Bft) SW 0,00 h 0,000 mm 0,0 UV-I 0 W/m 4,8 C 13,0 C 7,9 km/h (2 Bft) 0,00 %
11.04.2015 22:00 13,1 C 56 % 1024,6 hPa 0,0 l/m 4,3 km/h (1 Bft) S-SO 0,00 h 0,000 mm 0,0 UV-I 0 W/m 4,6 C 12,8 C 6,9 km/h (2 Bft) 0,00 %
11.04.2015 23:00 12,8 C 56 % 1025,4 hPa 0,0 l/m 1,4 km/h (1 Bft) W-SW 0,00 h 0,000 mm 0,0 UV-I 0 W/m 4,3 C 12,8 C 4,0 km/h (1 Bft) 0,00 %
12.04.2015 00:00 12,5 C 57 % 1026,4 hPa 0,0 l/m 3,2 km/h (1 Bft) W-SW 0,00 h 0,000 mm 0,0 UV-I 0 W/m 4,2 C 12,5 C 6,9 km/h (2 Bft) 0,00 %
12.04.2015 01:00 12,2 C 59 % 1027,0 hPa 0,0 l/m 2,5 km/h (1 Bft) S 0,00 h 0,000 mm 0,0 UV-I 0 W/m 4,5 C 12,2 C 5,0 km/h (1 Bft) 0,00 %
12.04.2015 02:00 11,4 C 62 % 1027,4 hPa 0,0 l/m 1,3 km/h (1 Bft) S-SW 0,00 h 0,000 mm 0,0 UV-I 0 W/m 4,4 C 11,4 C 4,0 km/h (1 Bft) 0,00 %
12.04.2015 03:00 10,8 C 64 % 1027,7 hPa 0,0 l/m 1,3 km/h (1 Bft) SW 0,00 h 0,000 mm 0,0 UV-I 0 W/m 4,3 C 10,8 C 4,0 km/h (1 Bft) 0,00 %
12.04.2015 04:00 10,9 C 64 % 1028,5 hPa 0,0 l/m 1,8 km/h (1 Bft) W-SW 0,00 h 0,000 mm 0,0 UV-I 0 W/m 4,3 C 10,9 C 5,0 km/h (1 Bft) 0,00 %
12.04.2015 05:00 9,9 C 69 % 1029,0 hPa 0,0 l/m 1,2 km/h (1 Bft) N 0,00 h 0,000 mm 0,0 UV-I 0 W/m 4,5 C 9,9 C 3,0 km/h (1 Bft) 0,00 %
12.04.2015 06:00 9,4 C 70 % 1029,3 hPa 0,0 l/m 0,0 km/h (0 Bft) N 0,00 h 0,000 mm 0,0 UV-I 4 W/m 4,3 C 9,4 C 0,0 km/h (0 Bft) 0,00 %
12.04.2015 07:00 10,7 C 65 % 1029,8 hPa 0,0 l/m 0,1 km/h (0 Bft) N 0,25 h 0,000 mm 1,0 UV-I 91 W/m 4,3 C 10,7 C 1,0 km/h (0 Bft) 0,00 %
12.04.2015 08:00 13,2 C 58 % 1029,9 hPa 0,0 l/m 1,5 km/h (1 Bft) W-SW 0,50 h 0,000 mm 1,3 UV-I 191 W/m 5,0 C 13,2 C 3,0 km/h (1 Bft) 0,00 %
12.04.2015 09:00 14,2 C 55 % 1029,0 hPa 0,0 l/m 4,0 km/h (1 Bft) W-SW 0,00 h 0,000 mm 2,0 UV-I 250 W/m 5,1 C 13,8 C 5,9 km/h (2 Bft) 0,00 %
12.04.2015 10:00 14,8 C 54 % 1029,4 hPa 0,0 l/m 1,1 km/h (1 Bft) SW 0,50 h 0,000 mm 3,0 UV-I 334 W/m 5,5 C 14,8 C 3,0 km/h (1 Bft) 0,00 %
12.04.2015 11:00 16,1 C 50 % 1029,1 hPa 0,0 l/m 3,0 km/h (1 Bft) W-SW 0,75 h 0,000 mm 3,7 UV-I 422 W/m 5,6 C 16,1 C 5,9 km/h (2 Bft) 0,00 %
12.04.2015 12:00 16,7 C 49 % 1028,5 hPa 0,0 l/m 5,1 km/h (1 Bft) W 1,00 h 0,000 mm 5,0 UV-I 558 W/m 5,9 C 16,3 C 6,9 km/h (2 Bft) 0,00 %
12.04.2015 13:00 17,8 C 46 % 1027,9 hPa 0,0 l/m 1,7 km/h (1 Bft) S-SW 0,50 h 0,000 mm 4,3 UV-I 512 W/m 5,9 C 17,8 C 5,0 km/h (1 Bft) 0,00 %
12.04.2015 14:00 18,8 C 42 % 1027,0 hPa 0,0 l/m 0,7 km/h (0 Bft) W 0,25 h 0,000 mm 3,3 UV-I 518 W/m 5,5 C 18,8 C 2,0 km/h (1 Bft) 0,00 %
12.04.2015 15:00 18,6 C 40 % 1026,3 hPa 0,0 l/m 1,0 km/h (0 Bft) N 0,50 h 0,000 mm 2,3 UV-I 319 W/m 4,6 C 18,6 C 2,0 km/h (1 Bft) 0,00 %
12.04.2015 16:00 18,7 C 38 % 1025,5 hPa 0,0 l/m 1,1 km/h (1 Bft) W 0,25 h 0,000 mm 2,0 UV-I 175 W/m 4,1 C 18,7 C 3,0 km/h (1 Bft) 0,00 %
12.04.2015 17:00 19,1 C 36 % 1025,5 hPa 0,0 l/m 0,0 km/h (0 Bft) W-SW 0,75 h 0,000 mm 1,0 UV-I 443 W/m 3,6 C 19,1 C 0,0 km/h (0 Bft) 0,00 %
12.04.2015 18:00 18,2 C 38 % 1025,3 hPa 0,0 l/m 0,7 km/h (0 Bft) N 1,00 h 0,000 mm 1,0 UV-I 410 W/m 3,7 C 18,2 C 1,0 km/h (0 Bft) 0,00 %
12.04.2015 19:00 16,4 C 43 % 1025,8 hPa 0,0 l/m 0,0 km/h (0 Bft) N 0,75 h 0,000 mm 0,0 UV-I 64 W/m 3,7 C 16,4 C 0,0 km/h (0 Bft) 0,00 %
12.04.2015 20:00 13,4 C 53 % 1026,6 hPa 0,0 l/m 0,0 km/h (0 Bft) N 0,00 h 0,000 mm 0,0 UV-I 0 W/m 3,9 C 13,4 C 0,0 km/h (0 Bft) 0,00 %
12.04.2015 21:00 10,9 C 62 % 1027,3 hPa 0,0 l/m 0,0 km/h (0 Bft) N 0,00 h 0,000 mm 0,0 UV-I 0 W/m 3,8 C 10,9 C 0,0 km/h (0 Bft) 0,00 %
12.04.2015 22:00 10,0 C 66 % 1027,3 hPa 0,0 l/m 0,0 km/h (0 Bft) N 0,00 h 0,000 mm 0,0 UV-I 0 W/m 4,0 C 10,0 C 0,0 km/h (0 Bft) 0,00 %
12.04.2015 23:00 9,5 C 72 % 1027,4 hPa 0,0 l/m 0,0 km/h (0 Bft) N 0,00 h 0,000 mm 0,0 UV-I 0 W/m 4,7 C 9,5 C 0,0 km/h (0 Bft) 0,00 %
Min-Datum _ 07.04.15 10.04.15 10.04.15 - 06.04.15 - - - - - 07.04.15 06.04.15 06.04.15 06.04.15
_ Min-Zeit 05:45 15:00 18:45 - 00:00 - - - - - 14:45 19:30 00:00 00:00
Minimum _ -1,4 C 31 % 1017,9 hPa - 0,0 km/h (0 Bft) - - - - - -5,7 C -3,8 C 0,0 km/h (0 Bft) 0,00 %
Max-Datum _ 10.04.15 10.04.15 07.04.15 06.04.15 09.04.15 - 06.04.15 06.04.15 07.04.15 08.04.15 12.04.15 10.04.15 09.04.15 06.04.15
_ Max-Zeit 17:15 06:30 09:00 13:45 17:15 - 10:30 00:00 12:45 13:15 12:15 17:15 17:15 00:00
Maximum _ 20,0 C 90 % 1036,8 hPa 0,6 l/m 23,4 km/h
O (4 Bft)
- 0,25 h 0,000 mm 6,0 UV-I 895 W/m 6,1 C 20,0 C 28,1 km/h
O (4 Bft)
0,00 %
Durchschnitt _ 8,7 C 59 % 1026,8 hPa #1,2 l/m 2,5 km/h (1 Bft) W-SW #48:45 h #0,000 mm 2,4 UV-I 314 W/m 0,6 C 8,4 C 4,1 km/h (1 Bft) 0,00 %